TimeEST,TemperatureF,Dew PointF,Humidity,Sea Level PressureIn,VisibilityMPH,Wind Direction,Wind SpeedMPH,Gust SpeedMPH,PrecipitationIn,Events,Conditions,WindDirDegrees,DateUTC
12:53 AM,64.0,61.0,90,29.92,10.0,Calm,Calm,-,N/A,,Clear,0,2012-11-06 05:53:00
1:53 AM,64.0,61.0,90,29.91,10.0,Calm,Calm,-,N/A,,Partly Cloudy,0,2012-11-06 06:53:00
2:53 AM,63.0,61.0,93,29.90,10.0,ESE,3.5,-,N/A,,Clear,110,2012-11-06 07:53:00
3:53 AM,62.1,60.1,93,29.90,10.0,Calm,Calm,-,N/A,,Clear,0,2012-11-06 08:53:00
4:53 AM,62.1,60.1,93,29.91,10.0,Calm,Calm,-,N/A,,Overcast,0,2012-11-06 09:53:00
5:53 AM,62.1,60.1,93,29.91,10.0,Calm,Calm,-,0.00,Rain,Light Rain,0,2012-11-06 10:53:00
6:53 AM,63.0,60.1,90,29.90,10.0,SE,4.6,-,0.00,Rain,Light Rain,140,2012-11-06 11:53:00
7:53 AM,66.9,62.1,84,29.92,10.0,Calm,Calm,-,0.00,,Mostly Cloudy,0,2012-11-06 12:53:00
8:53 AM,64.9,62.1,90,29.91,6.0,NE,4.6,-,N/A,Rain,Rain,50,2012-11-06 13:53:00
9:27 AM,64.4,62.6,94,29.94,2.5,North,9.2,-,N/A,Rain,Rain,360,2012-11-06 14:27:00
9:34 AM,64.4,62.6,94,29.95,4.0,North,6.9,-,N/A,Rain,Rain,360,2012-11-06 14:34:00
9:53 AM,64.9,63.0,93,29.94,10.0,ESE,5.8,-,N/A,Rain,Light Rain,120,2012-11-06 14:53:00
10:53 AM,68.0,64.9,90,29.92,10.0,ESE,4.6,-,N/A,,Mostly Cloudy,120,2012-11-06 15:53:00
11:53 AM,71.1,66.9,87,29.89,10.0,South,6.9,-,N/A,,Mostly Cloudy,190,2012-11-06 16:53:00
12:53 PM,73.9,66.0,76,29.86,10.0,SW,9.2,-,N/A,,Mostly Cloudy,230,2012-11-06 17:53:00
1:53 PM,73.9,66.0,76,29.84,10.0,WSW,8.1,-,N/A,,Mostly Cloudy,250,2012-11-06 18:53:00
2:53 PM,73.0,64.9,76,29.84,10.0,West,8.1,-,N/A,,Overcast,260,2012-11-06 19:53:00
3:53 PM,73.9,64.9,73,29.84,10.0,West,9.2,-,N/A,,Scattered Clouds,260,2012-11-06 20:53:00
4:53 PM,73.0,64.0,73,29.84,10.0,WNW,9.2,-,N/A,,Clear,290,2012-11-06 21:53:00
5:53 PM,69.1,62.1,78,29.84,10.0,NW,5.8,-,N/A,,Clear,310,2012-11-06 22:53:00
6:53 PM,68.0,61.0,78,29.86,10.0,NW,4.6,-,N/A,,Clear,320,2012-11-06 23:53:00
7:53 PM,66.9,62.1,84,29.87,10.0,NW,4.6,-,N/A,,Scattered Clouds,320,2012-11-07 00:53:00
8:53 PM,69.1,55.9,63,29.90,10.0,NNW,10.4,19.6,N/A,,Mostly Cloudy,330,2012-11-07 01:53:00
9:53 PM,66.9,52.0,59,29.90,10.0,NNW,8.1,-,N/A,,Clear,330,2012-11-07 02:53:00
10:53 PM,63.0,52.0,67,29.90,10.0,NNW,5.8,-,N/A,,Clear,330,2012-11-07 03:53:00
11:53 PM,63.0,52.0,67,29.88,10.0,NNW,4.6,-,N/A,,Clear,340,2012-11-07 04:53:00